Sharps Island — WDB2219 — position and weather

sailwx.info

Track history (hours):
 
Tides and Currents Weather Stations Pressure Air Temp Water Temp Dewpoint Dewpoint Depression Visibility Wind Speed Wind Dir Waves Ship Positions

Sharps Island

Owner: Langenfelder Marine Inc., Stevensville, MD. More information available from US FCC via Universal Licensing System and Coast Guard Vessel Documentation Center.

Last reported at 2016-Aug-31 13:15 UTC. Time now 2016-Dec-03 15:46 UTC.
Position N 36°45' W 076°18'.
Warning: this ship's position is months out of date.

Length 25 m.

Type: Tug. MMSI: 338126265.

Date/timePositionNaut miles runAvg speedWind from/ knotsBaromVisibWave heightAir tempDewpointWater temp
2016-Aug-31 13:15N 36°45' W 076°18'2 2.4
2016-Aug-31 12:33N 36°47' W 076°18'0 0.1
2016-Aug-31 11:32N 36°47' W 076°18'0 0.0
2016-Aug-31 10:32N 36°47' W 076°18'3 2.9
2016-Aug-31 09:32N 36°50' W 076°18'144 3.6
2016-Aug-29 17:09N 39°13' W 076°32'2 3.5
2016-Aug-29 16:31N 39°13' W 076°35'13 4.0
2016-Aug-29 13:21N 39°04' W 076°23'4 5.0
2016-Aug-29 12:32N 38°60' W 076°23'5 5.5
2016-Aug-29 11:33N 38°55' W 076°25'6 5.7
2016-Aug-29 10:32N 38°49' W 076°27'6 6.1
2016-Aug-29 09:33N 38°43' W 076°28'7 6.2
2016-Aug-29 08:29N 38°37' W 076°28'6 6.2
2016-Aug-29 07:33N 38°31' W 076°27'7 6.7
2016-Aug-29 06:32N 38°25' W 076°23'7 6.9
2016-Aug-29 05:33N 38°18' W 076°21'7 6.8
2016-Aug-29 04:32N 38°12' W 076°18'82 5.8
2016-Aug-28 14:33N 36°50' W 076°18'3 2.7
2016-Aug-28 13:33N 36°48' W 076°18'2 1.9
2016-Aug-28 12:32N 36°46' W 076°18'2 2.2
2016-Aug-28 11:28N 36°44' W 076°16'  
Track history (hours):
 
Tides and Currents Weather Stations Pressure Air Temp Water Temp Dewpoint Dewpoint Depression Visibility Wind Speed Wind Dir Waves Ship Positions

Sharps Island

Owner: Langenfelder Marine Inc., Stevensville, MD. More information available from US FCC via Universal Licensing System and Coast Guard Vessel Documentation Center.

Last reported at 2016-Aug-31 13:15 UTC. Time now 2016-Dec-03 15:46 UTC.
Position N 36°45' W 076°18'.
Warning: this ship's position is months out of date.

Length 25 m.

Type: Tug. MMSI: 338126265.

Date/timePositionNaut miles runAvg speedWind from/ knotsBaromVisibWave heightAir tempDewpointWater temp
2016-Aug-31 13:15N 36°45' W 076°18'2 2.4
2016-Aug-31 12:33N 36°47' W 076°18'0 0.1
2016-Aug-31 11:32N 36°47' W 076°18'0 0.0
2016-Aug-31 10:32N 36°47' W 076°18'3 2.9
2016-Aug-31 09:32N 36°50' W 076°18'144 3.6
2016-Aug-29 17:09N 39°13' W 076°32'2 3.5
2016-Aug-29 16:31N 39°13' W 076°35'13 4.0
2016-Aug-29 13:21N 39°04' W 076°23'4 5.0
2016-Aug-29 12:32N 38°60' W 076°23'5 5.5
2016-Aug-29 11:33N 38°55' W 076°25'6 5.7
2016-Aug-29 10:32N 38°49' W 076°27'6 6.1
2016-Aug-29 09:33N 38°43' W 076°28'7 6.2
2016-Aug-29 08:29N 38°37' W 076°28'6 6.2
2016-Aug-29 07:33N 38°31' W 076°27'7 6.7
2016-Aug-29 06:32N 38°25' W 076°23'7 6.9
2016-Aug-29 05:33N 38°18' W 076°21'7 6.8
2016-Aug-29 04:32N 38°12' W 076°18'82 5.8
2016-Aug-28 14:33N 36°50' W 076°18'3 2.7
2016-Aug-28 13:33N 36°48' W 076°18'2 1.9
2016-Aug-28 12:32N 36°46' W 076°18'2 2.2
2016-Aug-28 11:28N 36°44' W 076°16'  

Dump ship's entire track history